• Join FlightAware (Why Join?)
  • Login
  • US Flag 
08:48AM EDT


 

Airport Tracker/Info


-or-


 

Live Flight TrackerFlight Track Log ✈ JBU1273 ✈ 26-Jun-2013 ✈ KJFK - KCHS

Flight Track Log - Related Links

Times and Time Zones

All times are in EDT time to prevent confusion due to time zone crossing. See the JBU1273 flight status page for this flight to view local times or setup timezone preferences in your user account.

Time Position Orientation Groundspeed Altitude Reporting Facility
EDT Latitude Longitude Course Direction KTS MPH feet Rate Location/Type
08:15AM 40.6167 -73.8000 146° Southeast 175 201 1,100  Level New York TRACON
08:17AM 40.5333 -73.6833 133° Southeast 294 338 5,200 2,340 Climbing New York TRACON
08:18AM 40.3546 -73.5167 180° South  Level FlightAware Approximate
08:18AM 40.5167 -73.5667 101° East 329 379 8,200  Level New York TRACON
08:19AM 40.2679 -73.4340 159° South  Level FlightAware Approximate
08:20AM 40.1823 -73.3379 146° Southeast  Level FlightAware Approximate
08:20AM 40.3647 -73.4486 149° Southeast 312 359 12,800  Level New York Center
08:21AM 40.1158 -73.2788 146° Southeast  Level FlightAware Approximate
08:21AM 40.2594 -73.4064 163° South 366 421 14,000  Level New York Center
08:22AM 40.1608 -73.3375 152° Southeast 397 457 15,000 1,860 Climbing New York Center
08:24AM 39.9953 -73.2761 164° South 378 435 18,900 2,220 Climbing Washington Center
08:25AM 39.8878 -73.3175 196° South 381 438 20,800 1,740 Climbing Washington Center
08:26AM 39.7975 -73.3986 215° Southwest 370 426 22,400 1,080 Climbing Washington Center
08:27AM 39.7267 -73.5167 232° Southwest 388 447 23,000 900 Climbing Washington Center
08:28AM 39.6536 -73.6347 231° Southwest 405 466 24,300 1,380 Climbing Washington Center
08:29AM 39.5783 -73.7500 230° Southwest 419 482 25,800 1,380 Climbing Washington Center
08:30AM 39.4989 -73.8703 229° Southwest 430 495 27,100 1,200 Climbing Washington Center
08:31AM 39.4044 -73.9639 217° Southwest 430 495 28,300 1,080 Climbing Washington Center
08:32AM 39.3014 -74.0575 215° Southwest 443 510 29,300 1,320 Climbing Washington Center
08:33AM 39.2025 -74.1558 218° Southwest 455 524 31,000 1,380 Climbing Washington Center
08:34AM 39.1017 -74.2461 215° Southwest 455 524 32,100 1,200 Climbing Washington Center
08:35AM 39.0047 -74.3442 218° Southwest 450 518 33,400 1,260 Climbing Washington Center
08:36AM 38.9097 -74.4392 218° Southwest 450 518 34,700 960 Climbing Washington Center
08:37AM 38.8167 -74.5153 213° Southwest 448 516 35,400 600 Climbing Washington Center
08:38AM 38.7217 -74.6125 219° Southwest 442 509 36,000 360 Climbing Washington Center
08:39AM 38.6222 -74.7094 217° Southwest 442 509 36,200 360 Climbing Washington Center
08:40AM 38.5186 -74.7956 213° Southwest 454 522 36,800 600 Climbing Washington Center
08:41AM 38.4192 -74.8947 218° Southwest 454 522 37,500 540 Climbing Washington Center
08:42AM 38.3153 -74.9806 213° Southwest 454 522 38,000 240 Climbing Washington Center
08:43AM 38.2136 -75.0792 217° Southwest 454 522 38,000  Level Washington Center
08:44AM 38.1139 -75.1722 216° Southwest 454 522 38,000  Level Washington Center
08:45AM 38.0119 -75.2597 214° Southwest 454 522 38,000  Level Washington Center
08:46AM 37.9100 -75.3497 215° Southwest 454 522 38,000  Level Washington Center
08:47AM 37.8103 -75.4472 218° Southwest 454 522 38,000  Level Washington Center
08:48AM 37.7081 -75.5367 215° Southwest 454 522 38,000  Level Washington Center
08:49AM 37.6081 -75.6258 215° Southwest 454 522 38,000  Level Washington Center
08:50AM 37.5078 -75.7175 216° Southwest 454 522 38,000  Level Washington Center
08:51AM 37.4075 -75.8089 216° Southwest 454 522 38,000  Level Washington Center
08:52AM 37.3072 -75.8972 215° Southwest 454 522 38,000  Level Washington Center
08:53AM 37.2047 -75.9883 215° Southwest 454 522 38,000  Level Washington Center
08:54AM 37.1064 -76.0814 217° Southwest 454 522 38,000 -60 Level Washington Center
08:55AM 37.0036 -76.2006 223° Southwest 454 522 37,900 -480 Descending Washington Center
08:56AM 36.9133 -76.3114 224° Southwest 454 522 37,100 -240 Descending Washington Center
08:57AM 36.8250 -76.4222 225° Southwest 454 522 37,500 420 Climbing Washington Center
08:58AM 36.7386 -76.5328 226° Southwest 454 522 38,000 240 Climbing Washington Center
08:59AM 36.6606 -76.6353 227° Southwest 454 522 38,000  Level Washington Center
09:00AM 36.5697 -76.7453 224° Southwest 454 522 38,000  Level Washington Center
09:01AM 36.4747 -76.8628 225° Southwest 449 517 38,000  Level Washington Center
09:02AM 36.3922 -76.9647 225° Southwest 455 524 38,000  Level Washington Center
09:03AM 36.3014 -77.0739 224° Southwest 455 524 38,000  Level Washington Center
09:04AM 36.2039 -77.1931 225° Southwest 455 524 38,000  Level Washington Center
09:05AM 36.1294 -77.2892 226° Southwest 447 514 38,000  Level Washington Center
09:06AM 36.0403 -77.3978 225° Southwest 447 514 38,000  Level Washington Center
09:07AM 35.9489 -77.5061 224° Southwest 447 514 38,000  Level Washington Center
09:08AM 35.8617 -77.6117 224° Southwest 447 514 38,000  Level Washington Center
09:09AM 35.7719 -77.7194 224° Southwest 447 514 38,000  Level Washington Center
09:10AM 35.6825 -77.8269 224° Southwest 447 514 38,000  Level Washington Center
09:11AM 35.5864 -77.9417 224° Southwest 447 514 38,000  Level Washington Center
09:12AM 35.4967 -78.0464 224° Southwest 447 514 38,000 -60 Level Washington Center
09:13AM 35.4069 -78.1481 223° Southwest 441 507 37,900 -480 Descending Washington Center
09:14AM 35.3028 -78.2286 212° Southwest 441 507 37,100 -900 Descending Washington Center
09:15AM 35.1989 -78.3092 212° Southwest 446 513 36,200 -1,080 Descending Washington Center
09:16AM 35.0947 -78.3919 213° Southwest 446 513 35,000 -1,380 Descending Washington Center
09:17AM 34.9883 -78.4719 212° Southwest 451 519 33,400 -1,620 Descending Washington Center
09:18AM 34.8822 -78.5542 212° Southwest 451 519 31,900 -1,560 Descending Washington Center
09:20AM 34.6197 -78.7525 212° Southwest 461 531 28,100 -1,140 Descending Jacksonville Center
09:21AM 34.5139 -78.8333 212° Southwest 461 531 28,000 -60 Descending Jacksonville Center
09:22AM 34.4000 -78.9292 215° Southwest 461 531 28,000 -360 Level Jacksonville Center
09:23AM 34.2939 -79.0069 211° Southwest 456 525 27,300 -900 Descending Jacksonville Center
09:24AM 34.1811 -79.0672 204° Southwest 445 512 26,200 -1,200 Descending Jacksonville Center
09:25AM 34.0678 -79.1147 199° South 439 505 25,000 -1,200 Descending Jacksonville Center
09:26AM 33.9586 -79.1644 201° Southwest 434 499 23,800 -1,440 Descending Jacksonville Center
09:27AM 33.8578 -79.2089 200° South 428 493 22,200 -1,920 Descending Jacksonville Center
09:28AM 33.7528 -79.2633 203° Southwest 423 487 20,000 -2,160 Descending Jacksonville Center
09:29AM 33.6650 -79.3292 212° Southwest 398 458 17,900 -2,040 Descending Jacksonville Center
09:30AM 33.5753 -79.3975 212° Southwest 387 445 16,000 -1,980 Descending Jacksonville Center
09:31AM 33.4872 -79.4658 213° Southwest 387 445 14,000 -1,980 Descending Jacksonville Center
09:32AM 33.4014 -79.5314 213° Southwest 381 438 12,100 -1,800 Descending Jacksonville Center
09:33AM 33.3242 -79.6039 218° Southwest 370 426 10,400 -1,440 Descending Jacksonville Center
09:34AM 33.2697 -79.6803 230° Southwest 341 392 9,300 -1,680 Descending Jacksonville Center
09:35AM 33.2192 -79.7492 229° Southwest 302 348 7,100 -2,100 Descending Jacksonville Center
09:36AM 33.1708 -79.8206 231° Southwest 285 328 5,100 -1,800 Descending Jacksonville Center
09:37AM 33.1222 -79.8842 228° Southwest 275 316 3,600 -1,440 Descending Jacksonville Center
09:38AM 33.0736 -79.9403 224° Southwest 264 304 2,300 -840 Descending Jacksonville Center
09:39AM 33.0139 -79.9769 207° Southwest 241 277 2,000 -360 Descending Jacksonville Center
09:40AM 32.9706 -80.0006 205° Southwest 205 236 1,600 -660 Descending Jacksonville Center
09:41AM 32.9314 -80.0217 204° Southwest 176 203 700 -900 Descending Jacksonville Center